sensor_id;sensor_type;location;lat;lon;timestamp;pressure;altitude;pressure_sealevel;temperature;humidity
72975;BME280;61166;54.228;37.632;2022-10-23T00:01:48;99483.16;;;2.98;nan
72975;BME280;61166;54.228;37.632;2022-10-23T00:04:22;99476.03;;;3.00;nan
72975;BME280;61166;54.228;37.632;2022-10-23T00:06:49;99476.38;;;3.05;nan
72975;BME280;61166;54.228;37.632;2022-10-23T00:09:22;99470.53;;;3.03;nan
72975;BME280;61166;54.228;37.632;2022-10-23T00:11:50;99461.25;;;3.01;nan
72975;BME280;61166;54.228;37.632;2022-10-23T00:14:20;99458.31;;;2.95;nan
72975;BME280;61166;54.228;37.632;2022-10-23T00:16:47;99450.53;;;2.95;nan
72975;BME280;61166;54.228;37.632;2022-10-23T00:19:14;99463.81;;;2.84;nan
72975;BME280;61166;54.228;37.632;2022-10-23T00:21:40;99453.78;;;2.97;nan
72975;BME280;61166;54.228;37.632;2022-10-23T00:24:07;99442.72;;;2.95;nan
72975;BME280;61166;54.228;37.632;2022-10-23T00:26:35;99449.53;;;2.88;nan
72975;BME280;61166;54.228;37.632;2022-10-23T00:29:02;99444.16;;;2.90;nan
72975;BME280;61166;54.228;37.632;2022-10-23T00:31:29;99441.41;;;2.91;nan
72975;BME280;61166;54.228;37.632;2022-10-23T00:33:55;99442.06;;;2.93;nan
72975;BME280;61166;54.228;37.632;2022-10-23T00:36:22;99451.28;;;2.80;nan
72975;BME280;61166;54.228;37.632;2022-10-23T00:38:49;99434.59;;;2.82;nan
72975;BME280;61166;54.228;37.632;2022-10-23T00:41:22;99432.06;;;2.64;nan
72975;BME280;61166;54.228;37.632;2022-10-23T00:46:25;99430.94;;;2.67;nan
72975;BME280;61166;54.228;37.632;2022-10-23T00:48:51;99429.00;;;2.69;nan
72975;BME280;61166;54.228;37.632;2022-10-23T00:51:18;99420.19;;;2.62;nan
72975;BME280;61166;54.228;37.632;2022-10-23T00:53:47;99426.00;;;2.56;nan
72975;BME280;61166;54.228;37.632;2022-10-23T00:56:37;99416.56;;;2.55;nan
72975;BME280;61166;54.228;37.632;2022-10-23T00:59:05;99425.03;;;2.57;nan
72975;BME280;61166;54.228;37.632;2022-10-23T01:01:31;99419.94;;;2.73;nan
72975;BME280;61166;54.228;37.632;2022-10-23T01:03:59;99411.50;;;2.79;nan
72975;BME280;61166;54.228;37.632;2022-10-23T01:06:39;99410.91;;;2.93;nan
72975;BME280;61166;54.228;37.632;2022-10-23T01:09:22;99409.63;;;2.97;nan
72975;BME280;61166;54.228;37.632;2022-10-23T01:11:59;99401.38;;;3.10;nan
72975;BME280;61166;54.228;37.632;2022-10-23T01:17:08;99394.09;;;3.22;nan
72975;BME280;61166;54.228;37.632;2022-10-23T01:19:59;99388.44;;;3.26;nan
72975;BME280;61166;54.228;37.632;2022-10-23T01:25:18;99384.69;;;3.29;nan
72975;BME280;61166;54.228;37.632;2022-10-23T01:27:55;99383.75;;;3.46;nan
72975;BME280;61166;54.228;37.632;2022-10-23T01:30:25;99386.50;;;3.37;nan
72975;BME280;61166;54.228;37.632;2022-10-23T01:35:26;99378.47;;;3.06;nan
72975;BME280;61166;54.228;37.632;2022-10-23T01:38:00;99386.03;;;2.91;nan
72975;BME280;61166;54.228;37.632;2022-10-23T01:40:32;99364.22;;;2.68;nan
72975;BME280;61166;54.228;37.632;2022-10-23T01:43:06;99365.09;;;2.84;nan
72975;BME280;61166;54.228;37.632;2022-10-23T01:45:41;99363.16;;;2.86;nan
72975;BME280;61166;54.228;37.632;2022-10-23T01:48:13;99364.09;;;2.77;nan
72975;BME280;61166;54.228;37.632;2022-10-23T01:50:41;99363.47;;;2.83;nan
72975;BME280;61166;54.228;37.632;2022-10-23T01:53:08;99357.31;;;2.84;nan
72975;BME280;61166;54.228;37.632;2022-10-23T01:55:36;99359.59;;;2.95;nan
72975;BME280;61166;54.228;37.632;2022-10-23T01:58:05;99355.41;;;3.11;nan
72975;BME280;61166;54.228;37.632;2022-10-23T02:00:35;99361.28;;;3.21;nan
72975;BME280;61166;54.228;37.632;2022-10-23T02:03:05;99358.72;;;3.29;nan
72975;BME280;61166;54.228;37.632;2022-10-23T02:05:33;99355.78;;;3.32;nan
72975;BME280;61166;54.228;37.632;2022-10-23T02:08:01;99352.19;;;3.25;nan
72975;BME280;61166;54.228;37.632;2022-10-23T02:10:35;99348.97;;;3.39;nan
72975;BME280;61166;54.228;37.632;2022-10-23T02:24:19;99337.09;;;3.53;nan
72975;BME280;61166;54.228;37.632;2022-10-23T02:26:55;99339.22;;;3.49;nan
72975;BME280;61166;54.228;37.632;2022-10-23T02:29:34;99335.47;;;3.52;nan
72975;BME280;61166;54.228;37.632;2022-10-23T02:32:03;99334.97;;;3.48;nan
72975;BME280;61166;54.228;37.632;2022-10-23T02:34:31;99330.09;;;3.53;nan
72975;BME280;61166;54.228;37.632;2022-10-23T02:36:58;99326.84;;;3.59;nan
72975;BME280;61166;54.228;37.632;2022-10-23T02:39:26;99334.97;;;3.56;nan
72975;BME280;61166;54.228;37.632;2022-10-23T02:41:59;99328.47;;;3.52;nan
72975;BME280;61166;54.228;37.632;2022-10-23T02:44:39;99325.88;;;3.60;nan
72975;BME280;61166;54.228;37.632;2022-10-23T02:47:25;99324.25;;;3.59;nan
72975;BME280;61166;54.228;37.632;2022-10-23T02:50:08;99329.47;;;3.76;nan
72975;BME280;61166;54.228;37.632;2022-10-23T03:00:51;99328.97;;;3.80;nan
72975;BME280;61166;54.228;37.632;2022-10-23T03:03:26;99318.06;;;3.93;nan
72975;BME280;61166;54.228;37.632;2022-10-23T03:05:55;99314.97;;;3.89;nan
72975;BME280;61166;54.228;37.632;2022-10-23T03:08:22;99318.06;;;3.85;nan
72975;BME280;61166;54.228;37.632;2022-10-23T03:10:48;99305.06;;;3.93;nan
72975;BME280;61166;54.228;37.632;2022-10-23T03:13:15;99303.56;;;3.98;nan
72975;BME280;61166;54.228;37.632;2022-10-23T03:15:42;99301.91;;;4.06;nan
72975;BME280;61166;54.228;37.632;2022-10-23T03:18:09;99300.81;;;4.00;nan
72975;BME280;61166;54.228;37.632;2022-10-23T03:20:35;99298.84;;;4.02;nan
72975;BME280;61166;54.228;37.632;2022-10-23T03:23:02;99298.53;;;3.97;nan
72975;BME280;61166;54.228;37.632;2022-10-23T03:25:28;99297.56;;;3.98;nan
72975;BME280;61166;54.228;37.632;2022-10-23T03:27:55;99298.50;;;4.05;nan
72975;BME280;61166;54.228;37.632;2022-10-23T03:30:21;99298.50;;;4.05;nan
72975;BME280;61166;54.228;37.632;2022-10-23T03:32:48;99288.28;;;4.04;nan
72975;BME280;61166;54.228;37.632;2022-10-23T03:35:15;99292.88;;;3.85;nan
72975;BME280;61166;54.228;37.632;2022-10-23T03:37:41;99285.72;;;3.71;nan
72975;BME280;61166;54.228;37.632;2022-10-23T03:40:08;99295.16;;;3.64;nan
72975;BME280;61166;54.228;37.632;2022-10-23T03:42:35;99288.00;;;3.66;nan
72975;BME280;61166;54.228;37.632;2022-10-23T03:45:02;99289.00;;;3.57;nan
72975;BME280;61166;54.228;37.632;2022-10-23T03:47:28;99290.78;;;3.56;nan
72975;BME280;61166;54.228;37.632;2022-10-23T03:49:55;99283.94;;;3.63;nan
72975;BME280;61166;54.228;37.632;2022-10-23T03:52:22;99277.94;;;3.63;nan
72975;BME280;61166;54.228;37.632;2022-10-23T03:54:53;99288.81;;;3.58;nan
72975;BME280;61166;54.228;37.632;2022-10-23T03:57:20;99283.78;;;3.57;nan
72975;BME280;61166;54.228;37.632;2022-10-23T03:59:46;99283.28;;;3.70;nan
72975;BME280;61166;54.228;37.632;2022-10-23T04:02:13;99275.16;;;3.73;nan
72975;BME280;61166;54.228;37.632;2022-10-23T04:04:39;99267.03;;;3.76;nan
72975;BME280;61166;54.228;37.632;2022-10-23T04:07:06;99271.91;;;3.71;nan
72975;BME280;61166;54.228;37.632;2022-10-23T04:09:32;99263.13;;;3.63;nan
72975;BME280;61166;54.228;37.632;2022-10-23T04:11:59;99271.75;;;3.72;nan
72975;BME280;61166;54.228;37.632;2022-10-23T04:14:26;99255.81;;;3.75;nan
72975;BME280;61166;54.228;37.632;2022-10-23T04:16:52;99262.78;;;3.83;nan
72975;BME280;61166;54.228;37.632;2022-10-23T04:19:19;99260.34;;;3.81;nan
72975;BME280;61166;54.228;37.632;2022-10-23T04:21:45;99259.22;;;3.84;nan
72975;BME280;61166;54.228;37.632;2022-10-23T04:24:12;99248.13;;;3.90;nan
72975;BME280;61166;54.228;37.632;2022-10-23T04:26:39;99255.31;;;3.88;nan
72975;BME280;61166;54.228;37.632;2022-10-23T04:29:05;99259.50;;;3.97;nan
72975;BME280;61166;54.228;37.632;2022-10-23T04:31:32;99248.06;;;4.06;nan
72975;BME280;61166;54.228;37.632;2022-10-23T04:33:59;99248.69;;;4.16;nan
72975;BME280;61166;54.228;37.632;2022-10-23T04:36:25;99247.25;;;4.06;nan
72975;BME280;61166;54.228;37.632;2022-10-23T04:38:52;99247.09;;;4.07;nan
72975;BME280;61166;54.228;37.632;2022-10-23T04:41:18;99249.69;;;4.07;nan
72975;BME280;61166;54.228;37.632;2022-10-23T04:43:45;99254.56;;;4.10;nan
72975;BME280;61166;54.228;37.632;2022-10-23T04:46:11;99242.31;;;4.27;nan
72975;BME280;61166;54.228;37.632;2022-10-23T04:48:38;99240.84;;;4.24;nan
72975;BME280;61166;54.228;37.632;2022-10-23T04:51:05;99241.69;;;4.17;nan
72975;BME280;61166;54.228;37.632;2022-10-23T04:53:32;99244.59;;;4.22;nan
72975;BME280;61166;54.228;37.632;2022-10-23T04:55:59;99243.28;;;4.26;nan
72975;BME280;61166;54.228;37.632;2022-10-23T04:58:27;99244.38;;;4.40;nan
72975;BME280;61166;54.228;37.632;2022-10-23T05:00:53;99247.00;;;4.31;nan
72975;BME280;61166;54.228;37.632;2022-10-23T05:03:21;99246.84;;;4.33;nan
72975;BME280;61166;54.228;37.632;2022-10-23T05:05:51;99243.03;;;4.44;nan
72975;BME280;61166;54.228;37.632;2022-10-23T05:08:19;99248.59;;;4.41;nan
72975;BME280;61166;54.228;37.632;2022-10-23T05:10:47;99240.44;;;4.44;nan
72975;BME280;61166;54.228;37.632;2022-10-23T05:13:13;99236.22;;;4.43;nan
72975;BME280;61166;54.228;37.632;2022-10-23T05:15:40;99234.59;;;4.42;nan
72975;BME280;61166;54.228;37.632;2022-10-23T05:18:33;99233.31;;;4.38;nan
72975;BME280;61166;54.228;37.632;2022-10-23T05:21:12;99233.91;;;4.48;nan
72975;BME280;61166;54.228;37.632;2022-10-23T05:23:41;99228.53;;;4.49;nan
72975;BME280;61166;54.228;37.632;2022-10-23T05:26:09;99218.88;;;4.58;nan
72975;BME280;61166;54.228;37.632;2022-10-23T05:28:36;99223.91;;;4.59;nan
72975;BME280;61166;54.228;37.632;2022-10-23T05:31:04;99224.72;;;4.60;nan
72975;BME280;61166;54.228;37.632;2022-10-23T05:33:31;99226.16;;;4.62;nan
72975;BME280;61166;54.228;37.632;2022-10-23T05:35:59;99231.91;;;4.58;nan
72975;BME280;61166;54.228;37.632;2022-10-23T05:38:28;99237.78;;;4.52;nan
72975;BME280;61166;54.228;37.632;2022-10-23T05:40:57;99232.88;;;4.57;nan
72975;BME280;61166;54.228;37.632;2022-10-23T05:43:24;99227.72;;;4.49;nan
72975;BME280;61166;54.228;37.632;2022-10-23T05:45:50;99220.63;;;4.35;nan
72975;BME280;61166;54.228;37.632;2022-10-23T05:48:17;99217.19;;;4.42;nan
72975;BME280;61166;54.228;37.632;2022-10-23T05:51:06;99211.16;;;4.42;nan
72975;BME280;61166;54.228;37.632;2022-10-23T05:53:33;99210.13;;;4.51;nan
72975;BME280;61166;54.228;37.632;2022-10-23T05:56:07;99207.66;;;4.57;nan
72975;BME280;61166;54.228;37.632;2022-10-23T05:58:34;99199.38;;;4.54;nan
72975;BME280;61166;54.228;37.632;2022-10-23T06:01:09;99192.41;;;4.69;nan
72975;BME280;61166;54.228;37.632;2022-10-23T06:03:37;99193.16;;;4.78;nan
72975;BME280;61166;54.228;37.632;2022-10-23T06:06:05;99189.34;;;4.88;nan
72975;BME280;61166;54.228;37.632;2022-10-23T06:08:33;99182.41;;;5.04;nan
72975;BME280;61166;54.228;37.632;2022-10-23T06:11:10;99172.00;;;5.18;nan
72975;BME280;61166;54.228;37.632;2022-10-23T06:13:37;99177.47;;;5.23;nan
72975;BME280;61166;54.228;37.632;2022-10-23T06:16:23;99185.91;;;5.11;nan
72975;BME280;61166;54.228;37.632;2022-10-23T06:18:49;99191.75;;;5.13;nan
72975;BME280;61166;54.228;37.632;2022-10-23T06:21:16;99192.47;;;5.07;nan
72975;BME280;61166;54.228;37.632;2022-10-23T06:23:45;99193.91;;;5.09;nan
72975;BME280;61166;54.228;37.632;2022-10-23T06:26:14;99193.69;;;5.19;nan
72975;BME280;61166;54.228;37.632;2022-10-23T06:28:41;99176.41;;;5.18;nan
72975;BME280;61166;54.228;37.632;2022-10-23T06:31:10;99171.28;;;5.24;nan
72975;BME280;61166;54.228;37.632;2022-10-23T06:33:37;99171.47;;;5.38;nan
72975;BME280;61166;54.228;37.632;2022-10-23T06:36:04;99166.09;;;5.39;nan
72975;BME280;61166;54.228;37.632;2022-10-23T06:38:31;99167.25;;;5.37;nan
72975;BME280;61166;54.228;37.632;2022-10-23T06:40:57;99168.41;;;5.34;nan
72975;BME280;61166;54.228;37.632;2022-10-23T06:43:24;99158.41;;;5.23;nan
72975;BME280;61166;54.228;37.632;2022-10-23T06:45:50;99158.34;;;5.31;nan
72975;BME280;61166;54.228;37.632;2022-10-23T06:48:17;99167.06;;;5.38;nan
72975;BME280;61166;54.228;37.632;2022-10-23T06:50:43;99154.56;;;5.34;nan
72975;BME280;61166;54.228;37.632;2022-10-23T06:53:10;99150.97;;;5.35;nan
72975;BME280;61166;54.228;37.632;2022-10-23T06:55:37;99151.88;;;5.42;nan
72975;BME280;61166;54.228;37.632;2022-10-23T06:58:05;99155.38;;;5.49;nan
72975;BME280;61166;54.228;37.632;2022-10-23T07:00:32;99146.75;;;5.48;nan
72975;BME280;61166;54.228;37.632;2022-10-23T07:02:58;99154.13;;;5.59;nan
72975;BME280;61166;54.228;37.632;2022-10-23T07:05:25;99146.13;;;5.61;nan
72975;BME280;61166;54.228;37.632;2022-10-23T07:07:51;99147.03;;;5.68;nan
72975;BME280;61166;54.228;37.632;2022-10-23T07:10:18;99140.91;;;5.76;nan
72975;BME280;61166;54.228;37.632;2022-10-23T07:12:44;99136.81;;;5.88;nan
72975;BME280;61166;54.228;37.632;2022-10-23T07:15:11;99132.78;;;6.00;nan
72975;BME280;61166;54.228;37.632;2022-10-23T07:17:37;99135.47;;;6.07;nan
72975;BME280;61166;54.228;37.632;2022-10-23T07:20:04;99140.34;;;6.10;nan
72975;BME280;61166;54.228;37.632;2022-10-23T07:22:31;99141.44;;;6.01;nan
72975;BME280;61166;54.228;37.632;2022-10-23T07:24:58;99132.97;;;5.99;nan
72975;BME280;61166;54.228;37.632;2022-10-23T07:27:24;99139.56;;;5.94;nan
72975;BME280;61166;54.228;37.632;2022-10-23T07:29:51;99143.75;;;6.10;nan
72975;BME280;61166;54.228;37.632;2022-10-23T07:32:18;99143.22;;;6.00;nan
72975;BME280;61166;54.228;37.632;2022-10-23T07:34:45;99136.22;;;6.01;nan
72975;BME280;61166;54.228;37.632;2022-10-23T07:37:12;99138.56;;;5.95;nan
72975;BME280;61166;54.228;37.632;2022-10-23T07:39:38;99142.03;;;5.88;nan
72975;BME280;61166;54.228;37.632;2022-10-23T07:42:05;99148.06;;;5.88;nan
72975;BME280;61166;54.228;37.632;2022-10-23T07:44:32;99134.56;;;5.85;nan
72975;BME280;61166;54.228;37.632;2022-10-23T07:46:58;99135.31;;;5.79;nan
72975;BME280;61166;54.228;37.632;2022-10-23T07:49:25;99133.41;;;5.87;nan
72975;BME280;61166;54.228;37.632;2022-10-23T07:51:51;99124.06;;;5.78;nan
72975;BME280;61166;54.228;37.632;2022-10-23T07:54:18;99129.72;;;5.82;nan
72975;BME280;61166;54.228;37.632;2022-10-23T07:56:45;99128.41;;;5.71;nan
72975;BME280;61166;54.228;37.632;2022-10-23T07:59:12;99130.66;;;5.74;nan
72975;BME280;61166;54.228;37.632;2022-10-23T08:01:39;99126.59;;;5.72;nan
72975;BME280;61166;54.228;37.632;2022-10-23T08:04:07;99121.47;;;5.63;nan
72975;BME280;61166;54.228;37.632;2022-10-23T08:06:34;99113.91;;;5.69;nan
72975;BME280;61166;54.228;37.632;2022-10-23T08:09:01;99110.06;;;5.64;nan
72975;BME280;61166;54.228;37.632;2022-10-23T08:11:32;99117.44;;;5.76;nan
72975;BME280;61166;54.228;37.632;2022-10-23T08:14:00;99117.78;;;5.73;nan
72975;BME280;61166;54.228;37.632;2022-10-23T08:16:27;99113.13;;;5.68;nan
72975;BME280;61166;54.228;37.632;2022-10-23T08:18:54;99115.13;;;5.87;nan
72975;BME280;61166;54.228;37.632;2022-10-23T08:21:20;99122.53;;;5.84;nan
72975;BME280;61166;54.228;37.632;2022-10-23T08:23:47;99116.88;;;5.95;nan
72975;BME280;61166;54.228;37.632;2022-10-23T08:26:14;99109.47;;;5.99;nan
72975;BME280;61166;54.228;37.632;2022-10-23T08:28:40;99116.50;;;5.98;nan
72975;BME280;61166;54.228;37.632;2022-10-23T08:31:09;99107.59;;;5.92;nan
72975;BME280;61166;54.228;37.632;2022-10-23T08:33:37;99102.81;;;5.96;nan
72975;BME280;61166;54.228;37.632;2022-10-23T08:36:05;99106.56;;;6.08;nan
72975;BME280;61166;54.228;37.632;2022-10-23T08:38:31;99101.00;;;6.11;nan
72975;BME280;61166;54.228;37.632;2022-10-23T08:40:58;99101.50;;;6.21;nan
72975;BME280;61166;54.228;37.632;2022-10-23T08:43:42;99102.25;;;6.15;nan
72975;BME280;61166;54.228;37.632;2022-10-23T08:46:14;99102.72;;;6.04;nan
72975;BME280;61166;54.228;37.632;2022-10-23T08:48:55;99095.97;;;5.95;nan
72975;BME280;61166;54.228;37.632;2022-10-23T08:51:35;99090.41;;;5.98;nan
72975;BME280;61166;54.228;37.632;2022-10-23T08:54:22;99092.47;;;6.03;nan
72975;BME280;61166;54.228;37.632;2022-10-23T08:57:01;99094.81;;;5.97;nan
72975;BME280;61166;54.228;37.632;2022-10-23T08:59:35;99094.44;;;6.01;nan
72975;BME280;61166;54.228;37.632;2022-10-23T09:02:15;99088.88;;;5.89;nan
72975;BME280;61166;54.228;37.632;2022-10-23T09:04:46;99091.19;;;5.84;nan
72975;BME280;61166;54.228;37.632;2022-10-23T09:07:51;99090.03;;;6.01;nan
72975;BME280;61166;54.228;37.632;2022-10-23T09:10:40;99089.50;;;5.91;nan
72975;BME280;61166;54.228;37.632;2022-10-23T09:18:57;99084.63;;;5.88;nan
72975;BME280;61166;54.228;37.632;2022-10-23T09:21:28;99082.75;;;5.82;nan
72975;BME280;61166;54.228;37.632;2022-10-23T09:23:55;99081.38;;;5.86;nan
72975;BME280;61166;54.228;37.632;2022-10-23T09:26:22;99081.75;;;5.83;nan
72975;BME280;61166;54.228;37.632;2022-10-23T09:28:51;99081.06;;;5.89;nan
72975;BME280;61166;54.228;37.632;2022-10-23T09:31:18;99072.13;;;5.83;nan
72975;BME280;61166;54.228;37.632;2022-10-23T09:33:59;99074.56;;;5.85;nan
72975;BME280;61166;54.228;37.632;2022-10-23T09:36:27;99071.69;;;5.80;nan
72975;BME280;61166;54.228;37.632;2022-10-23T09:38:57;99069.59;;;6.05;nan
72975;BME280;61166;54.228;37.632;2022-10-23T09:41:37;99070.25;;;5.92;nan
72975;BME280;61166;54.228;37.632;2022-10-23T09:46:41;99056.34;;;6.06;nan
72975;BME280;61166;54.228;37.632;2022-10-23T09:54:30;99050.78;;;6.31;nan
72975;BME280;61166;54.228;37.632;2022-10-23T09:57:02;99045.72;;;6.08;nan
72975;BME280;61166;54.228;37.632;2022-10-23T09:59:31;99037.69;;;6.09;nan
72975;BME280;61166;54.228;37.632;2022-10-23T10:02:00;99036.59;;;6.18;nan
72975;BME280;61166;54.228;37.632;2022-10-23T10:04:35;99035.97;;;6.16;nan
72975;BME280;61166;54.228;37.632;2022-10-23T10:07:05;99033.22;;;6.24;nan
72975;BME280;61166;54.228;37.632;2022-10-23T10:09:32;99029.00;;;6.23;nan
72975;BME280;61166;54.228;37.632;2022-10-23T10:15:57;99018.00;;;6.28;nan
72975;BME280;61166;54.228;37.632;2022-10-23T10:21:15;99010.63;;;6.38;nan
72975;BME280;61166;54.228;37.632;2022-10-23T10:24:15;99005.31;;;6.53;nan
72975;BME280;61166;54.228;37.632;2022-10-23T10:26:54;99000.19;;;6.38;nan
72975;BME280;61166;54.228;37.632;2022-10-23T10:41:32;98986.22;;;6.24;nan
72975;BME280;61166;54.228;37.632;2022-10-23T10:47:05;98985.41;;;6.24;nan
72975;BME280;61166;54.228;37.632;2022-10-23T10:49:51;98981.25;;;6.29;nan
72975;BME280;61166;54.228;37.632;2022-10-23T10:52:38;98972.19;;;6.25;nan
72975;BME280;61166;54.228;37.632;2022-10-23T10:55:27;98964.47;;;6.17;nan
72975;BME280;61166;54.228;37.632;2022-10-23T10:58:04;98972.94;;;6.19;nan
72975;BME280;61166;54.228;37.632;2022-10-23T11:00:35;98956.25;;;6.20;nan
72975;BME280;61166;54.228;37.632;2022-10-23T11:03:24;98955.28;;;6.21;nan
72975;BME280;61166;54.228;37.632;2022-10-23T11:05:55;98954.75;;;6.33;nan
72975;BME280;61166;54.228;37.632;2022-10-23T11:10:59;98945.00;;;6.48;nan
72975;BME280;61166;54.228;37.632;2022-10-23T11:13:36;98947.19;;;6.44;nan
72975;BME280;61166;54.228;37.632;2022-10-23T11:16:12;98943.75;;;6.44;nan
72975;BME280;61166;54.228;37.632;2022-10-23T11:18:43;98939.00;;;6.54;nan
72975;BME280;61166;54.228;37.632;2022-10-23T11:34:37;98913.25;;;6.51;nan
72975;BME280;61166;54.228;37.632;2022-10-23T11:37:06;98921.91;;;6.51;nan
72975;BME280;61166;54.228;37.632;2022-10-23T11:39:35;98918.06;;;6.47;nan
72975;BME280;61166;54.228;37.632;2022-10-23T11:52:38;98903.16;;;6.41;nan
72975;BME280;61166;54.228;37.632;2022-10-23T11:55:29;98887.66;;;6.40;nan
72975;BME280;61166;54.228;37.632;2022-10-23T11:58:17;98893.50;;;6.42;nan
72975;BME280;61166;54.228;37.632;2022-10-23T12:00:55;98886.72;;;6.47;nan
72975;BME280;61166;54.228;37.632;2022-10-23T12:03:37;98889.53;;;6.46;nan
72975;BME280;61166;54.228;37.632;2022-10-23T12:06:05;98886.53;;;6.49;nan
72975;BME280;61166;54.228;37.632;2022-10-23T12:08:34;98889.28;;;6.41;nan
72975;BME280;61166;54.228;37.632;2022-10-23T12:11:03;98886.34;;;6.50;nan
72975;BME280;61166;54.228;37.632;2022-10-23T12:13:43;98884.94;;;6.54;nan
72975;BME280;61166;54.228;37.632;2022-10-23T12:16:10;98878.53;;;6.57;nan
72975;BME280;61166;54.228;37.632;2022-10-23T12:18:46;98880.22;;;6.71;nan
72975;BME280;61166;54.228;37.632;2022-10-23T12:21:21;98875.31;;;6.55;nan
72975;BME280;61166;54.228;37.632;2022-10-23T12:24:13;98878.69;;;6.49;nan
72975;BME280;61166;54.228;37.632;2022-10-23T12:27:25;98868.09;;;6.57;nan
72975;BME280;61166;54.228;37.632;2022-10-23T12:40:37;98862.44;;;6.53;nan
72975;BME280;61166;54.228;37.632;2022-10-23T12:43:22;98860.28;;;6.63;nan
72975;BME280;61166;54.228;37.632;2022-10-23T12:45:50;98864.28;;;6.59;nan
72975;BME280;61166;54.228;37.632;2022-10-23T12:48:19;98854.88;;;6.65;nan
72975;BME280;61166;54.228;37.632;2022-10-23T12:50:55;98852.22;;;6.58;nan
72975;BME280;61166;54.228;37.632;2022-10-23T12:53:22;98855.47;;;6.67;nan
72975;BME280;61166;54.228;37.632;2022-10-23T12:55:58;98847.78;;;6.59;nan
72975;BME280;61166;54.228;37.632;2022-10-23T12:58:32;98853.97;;;6.51;nan
72975;BME280;61166;54.228;37.632;2022-10-23T13:01:04;98849.41;;;6.60;nan
72975;BME280;61166;54.228;37.632;2022-10-23T13:03:33;98851.19;;;6.53;nan
72975;BME280;61166;54.228;37.632;2022-10-23T13:06:01;98846.25;;;6.71;nan
72975;BME280;61166;54.228;37.632;2022-10-23T13:08:36;98849.63;;;6.65;nan
72975;BME280;61166;54.228;37.632;2022-10-23T13:11:04;98840.53;;;6.54;nan
72975;BME280;61166;54.228;37.632;2022-10-23T13:13:32;98843.56;;;6.58;nan
72975;BME280;61166;54.228;37.632;2022-10-23T13:15:58;98837.50;;;6.51;nan
72975;BME280;61166;54.228;37.632;2022-10-23T13:18:25;98832.91;;;6.53;nan
72975;BME280;61166;54.228;37.632;2022-10-23T13:23:24;98823.66;;;6.57;nan
72975;BME280;61166;54.228;37.632;2022-10-23T13:28:51;98819.66;;;6.61;nan
72975;BME280;61166;54.228;37.632;2022-10-23T13:31:28;98818.25;;;6.58;nan
72975;BME280;61166;54.228;37.632;2022-10-23T13:36:28;98809.41;;;6.59;nan
72975;BME280;61166;54.228;37.632;2022-10-23T13:41:27;98819.25;;;6.57;nan
72975;BME280;61166;54.228;37.632;2022-10-23T13:43:54;98816.88;;;6.62;nan
72975;BME280;61166;54.228;37.632;2022-10-23T13:46:22;98813.25;;;6.63;nan
72975;BME280;61166;54.228;37.632;2022-10-23T13:48:50;98806.38;;;6.56;nan
72975;BME280;61166;54.228;37.632;2022-10-23T13:51:20;98807.19;;;6.56;nan
72975;BME280;61166;54.228;37.632;2022-10-23T13:53:47;98803.13;;;6.47;nan
72975;BME280;61166;54.228;37.632;2022-10-23T13:56:16;98812.38;;;6.50;nan
72975;BME280;61166;54.228;37.632;2022-10-23T13:58:43;98802.38;;;6.60;nan
72975;BME280;61166;54.228;37.632;2022-10-23T14:01:33;98801.78;;;6.58;nan
72975;BME280;61166;54.228;37.632;2022-10-23T14:04:01;98799.34;;;6.56;nan
72975;BME280;61166;54.228;37.632;2022-10-23T14:06:29;98805.00;;;6.60;nan
72975;BME280;61166;54.228;37.632;2022-10-23T14:08:56;98801.56;;;6.59;nan
72975;BME280;61166;54.228;37.632;2022-10-23T14:11:23;98792.31;;;6.57;nan
72975;BME280;61166;54.228;37.632;2022-10-23T14:13:50;98791.69;;;6.55;nan
72975;BME280;61166;54.228;37.632;2022-10-23T14:16:18;98802.38;;;6.60;nan
72975;BME280;61166;54.228;37.632;2022-10-23T14:18:46;98795.97;;;6.62;nan
72975;BME280;61166;54.228;37.632;2022-10-23T14:21:14;98789.31;;;6.60;nan
72975;BME280;61166;54.228;37.632;2022-10-23T14:23:41;98789.72;;;6.57;nan
72975;BME280;61166;54.228;37.632;2022-10-23T14:26:10;98786.31;;;6.63;nan
72975;BME280;61166;54.228;37.632;2022-10-23T14:28:37;98787.13;;;6.63;nan
72975;BME280;61166;54.228;37.632;2022-10-23T14:31:05;98786.69;;;6.60;nan
72975;BME280;61166;54.228;37.632;2022-10-23T14:33:33;98784.28;;;6.58;nan
72975;BME280;61166;54.228;37.632;2022-10-23T14:36:00;98786.28;;;6.56;nan
72975;BME280;61166;54.228;37.632;2022-10-23T14:38:27;98780.66;;;6.59;nan
72975;BME280;61166;54.228;37.632;2022-10-23T14:40:54;98785.47;;;6.56;nan
72975;BME280;61166;54.228;37.632;2022-10-23T14:43:21;98785.47;;;6.56;nan
72975;BME280;61166;54.228;37.632;2022-10-23T14:45:48;98785.47;;;6.56;nan
72975;BME280;61166;54.228;37.632;2022-10-23T14:48:15;98785.13;;;6.66;nan
72975;BME280;61166;54.228;37.632;2022-10-23T14:50:43;98780.69;;;6.66;nan
72975;BME280;61166;54.228;37.632;2022-10-23T14:53:10;98784.34;;;6.72;nan
72975;BME280;61166;54.228;37.632;2022-10-23T14:55:37;98774.25;;;6.62;nan
72975;BME280;61166;54.228;37.632;2022-10-23T14:58:04;98774.66;;;6.66;nan
72975;BME280;61166;54.228;37.632;2022-10-23T15:00:31;98772.25;;;6.64;nan
72975;BME280;61166;54.228;37.632;2022-10-23T15:02:58;98783.13;;;6.68;nan
72975;BME280;61166;54.228;37.632;2022-10-23T15:05:25;98775.88;;;6.63;nan
72975;BME280;61166;54.228;37.632;2022-10-23T15:07:51;98770.47;;;6.71;nan
72975;BME280;61166;54.228;37.632;2022-10-23T15:10:18;98777.50;;;6.71;nan
72975;BME280;61166;54.228;37.632;2022-10-23T15:12:44;98772.84;;;6.59;nan
72975;BME280;61166;54.228;37.632;2022-10-23T15:15:11;98777.09;;;6.67;nan
72975;BME280;61166;54.228;37.632;2022-10-23T15:17:38;98766.03;;;6.65;nan
72975;BME280;61166;54.228;37.632;2022-10-23T15:20:05;98763.63;;;6.70;nan
72975;BME280;61166;54.228;37.632;2022-10-23T15:22:32;98766.22;;;6.63;nan
72975;BME280;61166;54.228;37.632;2022-10-23T15:24:58;98768.84;;;6.70;nan
72975;BME280;61166;54.228;37.632;2022-10-23T15:27:25;98767.47;;;6.74;nan
72975;BME280;61166;54.228;37.632;2022-10-23T15:29:51;98760.44;;;6.75;nan
72975;BME280;61166;54.228;37.632;2022-10-23T15:32:18;98766.41;;;6.62;nan